KSKF/SKF METAR and TAF weather

Enter ICAO airport designator
Station Type Date Time Source
KSKF METAR 2019/04/23 03:56 UTC NOAA

KSKF 230356Z 11008KT 10SM BKN018 OVC250 21/18 A3001 RMK AO2A SLP157 T02110175 $


Station Type Date Time Source
KSKF Decoded METAR 2019/04/23 03:56 UTC NOAA

Kelly Air Force Base, TX, United States (KSKF) 29-23N 098-35W
Apr 22, 2019 - 11:56 PM EDT / 2019.04.23 0356 UTC
Wind: from the ESE (110 degrees) at 9 MPH (8 KT):0
Visibility: 10 mile(s):0
Sky conditions: overcast
Temperature: 70.0 F (21.1 C)
Dew Point: 63.5 F (17.5 C)
Relative Humidity: 79%
Pressure (altimeter): 30.01 in. Hg (1016 hPa)
ob: KSKF 230356Z 11008KT 10SM BKN018 OVC250 21/18 A3001 RMK AO2A SLP157 T02110175
cycle: 4

Station Type Date Time Source
KSKF TAF 2019/04/23 02:15 UTC NOAA

TAF KSKF 230200Z 2302/2408 12012KT 9999 FEW030 OVC250 QNH2996INS
BECMG 2303/2304 12009KT 9999 BKN015 OVC250 QNH2995INS
BECMG 2310/2311 12009KT 6000 -DZ BR OVC007 QNH2991INS
BECMG 2314/2315 14014KT 9999 NSW SCT007 OVC015 QNH2993INS
BECMG 2317/2318 14015G25KT 9999 SCT010 OVC025 QNH2987INS
BECMG 2401/2402 12009KT 9999 BKN012 QNH2985INS TX27/2321Z TN18/2310Z

Example: see airport list